Map

Track Data

SID SEASON NUMBER BASIN SUBBASIN NAME ISO_TIME NATURE LAT LON WMO_WIND WMO_PRES WMO_AGENCY TRACK_TYPE DIST2LAND LANDFALL IFLAG USA_AGENCY USA_ATCF_ID USA_LAT USA_LON USA_RECORD USA_STATUS USA_WIND USA_PRES USA_SSHS USA_R34_NE USA_R34_SE USA_R34_SW USA_R34_NW USA_R50_NE USA_R50_SE USA_R50_SW USA_R50_NW USA_R64_NE USA_R64_SE USA_R64_SW USA_R64_NW USA_POCI USA_ROCI USA_RMW USA_EYE TOKYO_LAT TOKYO_LON TOKYO_GRADE TOKYO_WIND TOKYO_PRES TOKYO_R50_DIR TOKYO_R50_LONG TOKYO_R50_SHORT TOKYO_R30_DIR TOKYO_R30_LONG TOKYO_R30_SHORT TOKYO_LAND CMA_LAT CMA_LON CMA_CAT CMA_WIND CMA_PRES HKO_LAT HKO_LON HKO_CAT HKO_WIND HKO_PRES NEWDELHI_LAT NEWDELHI_LON NEWDELHI_GRADE NEWDELHI_WIND NEWDELHI_PRES NEWDELHI_CI NEWDELHI_DP NEWDELHI_POCI REUNION_LAT REUNION_LON REUNION_TYPE REUNION_WIND REUNION_PRES REUNION_TNUM REUNION_CI REUNION_RMW REUNION_R34_NE REUNION_R34_SE REUNION_R34_SW REUNION_R34_NW REUNION_R50_NE REUNION_R50_SE REUNION_R50_SW REUNION_R50_NW REUNION_R64_NE REUNION_R64_SE REUNION_R64_SW REUNION_R64_NW BOM_LAT BOM_LON BOM_TYPE BOM_WIND BOM_PRES BOM_TNUM BOM_CI BOM_RMW BOM_R34_NE BOM_R34_SE BOM_R34_SW BOM_R34_NW BOM_R50_NE BOM_R50_SE BOM_R50_SW BOM_R50_NW BOM_R64_NE BOM_R64_SE BOM_R64_SW BOM_R64_NW BOM_ROCI BOM_POCI BOM_EYE BOM_POS_METHOD BOM_PRES_METHOD NADI_LAT NADI_LON NADI_CAT NADI_WIND NADI_PRES WELLINGTON_LAT WELLINGTON_LON WELLINGTON_WIND WELLINGTON_PRES DS824_LAT DS824_LON DS824_STAGE DS824_WIND DS824_PRES TD9636_LAT TD9636_LON TD9636_STAGE TD9636_WIND TD9636_PRES TD9635_LAT TD9635_LON TD9635_WIND TD9635_PRES TD9635_ROCI NEUMANN_LAT NEUMANN_LON NEUMANN_CLASS NEUMANN_WIND NEUMANN_PRES MLC_LAT MLC_LON MLC_CLASS MLC_WIND MLC_PRES USA_GUST BOM_GUST BOM_GUST_PER REUNION_GUST REUNION_GUST_PER USA_SEAHGT USA_SEARAD_NE USA_SEARAD_SE USA_SEARAD_SW USA_SEARAD_NW STORM_SPEED STORM_DIR
2020271N20159 2020 32 WP MM KUJIRA 2020-09-26 18:00:00 NR 20.0000 159.400 PROVISIONAL 2515 2507 O_____________ tcvitals WP152020 20.0000 159.400 25 1005 -1 1007 180 55 2 339
2020271N20159 2020 32 WP MM KUJIRA 2020-09-26 21:00:00 NR 20.1170 159.367 PROVISIONAL 2507 2461 P_____________ WP152020 20.1170 159.367 27 1004 -1 1007 185 50 5 325
2020271N20159 2020 32 WP MM KUJIRA 2020-09-27 00:00:00 NR 20.4000 159.100 PROVISIONAL 2461 2378 O_____________ tcvitals WP152020 20.4000 159.100 29 1004 -1 1008 190 45 12 315
2020271N20159 2020 32 WP MM KUJIRA 2020-09-27 03:00:00 NR 20.9608 158.461 PROVISIONAL 2369 2256 P_____________ WP152020 20.9608 158.461 29 1003 -1 1007 190 45 18 315
2020271N20159 2020 32 WP MM KUJIRA 2020-09-27 06:00:00 NR 21.7000 157.700 PROVISIONAL 2256 2163 O_____________ tcvitals WP152020 21.7000 157.700 29 1002 -1 1006 190 45 20 321
2020271N20159 2020 32 WP MM KUJIRA 2020-09-27 09:00:00 NR 22.4620 157.134 PROVISIONAL 2148 2048 P_____________ WP152020 22.4620 157.134 32 1001 -1 1006 190 45 19 328
2020271N20159 2020 32 WP MM KUJIRA 2020-09-27 12:00:00 NR 23.3000 156.600 PROVISIONAL 2048 1933 O_____________ tcvitals WP152020 23.3000 156.600 35 1000 0 130 230 20 40 1006 190 45 20 329
2020271N20159 2020 32 WP MM KUJIRA 2020-09-27 15:00:00 NR 24.2073 156.015 PROVISIONAL 1933 1820 P_____________ WP152020 24.2073 156.015 35 999 0 132 215 25 55 1005 187 45 21 329
2020271N20159 2020 32 WP MM KUJIRA 2020-09-27 18:00:00 NR 25.1000 155.400 PROVISIONAL 1820 1722 O_____________ tcvitals WP152020 25.1000 155.400 35 998 0 135 200 30 70 1005 185 45 20 325
2020271N20159 2020 32 WP MM KUJIRA 2020-09-27 21:00:00 NR 25.8801 154.727 PROVISIONAL 1707 1610 P_____________ WP152020 25.8801 154.727 37 998 0 130 115 32 70 1005 187 40 19 322
2020271N20159 2020 32 WP MM KUJIRA 2020-09-28 00:00:00 NR 26.6000 154.100 PROVISIONAL 1610 1521 O_____________ tcvitals WP152020 26.6000 154.100 39 999 0 126 30 35 70 1006 190 35 18 325
2020271N20159 2020 32 WP MM KUJIRA 2020-09-28 03:00:00 NR 27.3449 153.560 PROVISIONAL 1521 1441 P_____________ WP152020 27.3449 153.560 42 996 0 150 82 45 55 1006 190 35 16 330
2020271N20159 2020 32 WP MM KUJIRA 2020-09-28 06:00:00 NR 28.0000 153.200 PROVISIONAL 1441 1405 O_____________ tcvitals WP152020 28.0000 153.200 45 993 0 175 135 55 40 1006 190 35 12 338
2020271N20159 2020 32 WP MM KUJIRA 2020-09-28 09:00:00 NR 28.4422 153.052 PROVISIONAL 1405 1371 P_____________ WP152020 28.4422 153.052 45 992 0 157 122 57 52 1006 190 35 9 355
2020271N20159 2020 32 WP MM KUJIRA 2020-09-28 12:00:00 NR 28.9000 153.100 PROVISIONAL 1371 1340 O_____________ tcvitals WP152020 28.9000 153.100 45 992 0 140 110 60 65 1006 190 35 11 9
2020271N20159 2020 32 WP MM KUJIRA 2020-09-28 15:00:00 NR 29.5526 153.248 PROVISIONAL 1334 1314 P_____________ WP152020 29.5526 153.248 48 990 0 150 115 75 82 1004 182 45 15 13
2020271N20159 2020 32 WP MM KUJIRA 2020-09-28 18:00:00 NR 30.4000 153.500 PROVISIONAL 1311 1275 O_____________ tcvitals WP152020 30.4000 153.500 51 988 0 160 120 90 100 1003 175 55 20 13
2020271N20159 2020 32 WP MM KUJIRA 2020-09-28 21:00:00 NR 31.4473 153.756 PROVISIONAL 1284 1258 P_____________ WP152020 31.4473 153.756 55 984 0 107 125 65 65 1003 175 47 23 13
2020271N20159 2020 32 WP MM KUJIRA 2020-09-29 00:00:00 NR 32.6000 154.100 PROVISIONAL 1259 1253 O_____________ tcvitals WP152020 32.6000 154.100 60 980 0 55 130 40 30 1003 175 40 24 16
2020271N20159 2020 32 WP MM KUJIRA 2020-09-29 03:00:00 NR 33.7373 154.548 PROVISIONAL 1259 1249 P_____________ WP152020 33.7373 154.548 62 977 0 87 137 70 70 1003 175 40 24 21
2020271N20159 2020 32 WP MM KUJIRA 2020-09-29 06:00:00 NR 34.8000 155.100 PROVISIONAL 1246 1206 O_____________ tcvitals WP152020 34.8000 155.100 64 974 1 120 145 100 110 1003 175 40 22 26
2020271N20159 2020 32 WP MM KUJIRA 2020-09-29 09:00:00 NR 35.7017 155.692 PROVISIONAL 1206 1155 P_____________ WP152020 35.7017 155.692 64 975 1 117 145 105 105 1004 170 32 20 32
2020271N20159 2020 32 WP MM KUJIRA 2020-09-29 12:00:00 NR 36.5000 156.400 PROVISIONAL 1155 1122 O_____________ tcvitals WP152020 36.5000 156.400 64 977 1 115 145 110 100 1006 165 25 20 39
2020271N20159 2020 32 WP MM KUJIRA 2020-09-29 15:00:00 NR 37.2510 157.252 PROVISIONAL 1117 1092 P_____________ WP152020 37.2510 157.252 59 979 0 120 147 100 105 1007 160 32 21 44
2020271N20159 2020 32 WP MM KUJIRA 2020-09-29 18:00:00 NR 38.0000 158.200 PROVISIONAL 1097 1070 O_____________ tcvitals WP152020 38.0000 158.200 54 982 0 126 150 90 110 1008 155 40 22 43
2020271N20159 2020 32 WP MM KUJIRA 2020-09-29 21:00:00 NR 38.8614 159.126 PROVISIONAL 1066 1059 P_____________ WP152020 38.8614 159.126 51 984 0 23 42
2020271N20159 2020 32 WP MM KUJIRA 2020-09-30 00:00:00 NR 39.6839 160.173 PROVISIONAL 1065 1063 I_____________ tcvitals WP152020 39.6839 160.173 49 987 0 23 50
2020271N20159 2020 32 WP MM KUJIRA 2020-09-30 03:00:00 NR 40.3474 161.422 PROVISIONAL 1096 1095 P_____________ WP152020 40.3474 161.422 47 990 0 23 59
2020271N20159 2020 32 WP MM KUJIRA 2020-09-30 06:00:00 NR 40.9000 162.800 PROVISIONAL 1150 O_____________ tcvitals WP152020 40.9000 162.800 45 993 0 30 30 30 30 1008 165 30 24 62

Digital Typhoon Data and Search

About IBTrACS Database

This database is a web-friendly format of International Best Track Archive for Climate Stewardship (IBTrACS), a global best track data archive curated by NOAA dating back to 1842.

Updated: 2021-11-26